sensor_id;sensor_type;location;lat;lon;timestamp;pressure;altitude;pressure_sealevel;temperature
20289;BMP180;10303;51.960;8.372;2023-04-01T00:01:03;98328.00;;;13.50
20289;BMP180;10303;51.960;8.372;2023-04-01T00:03:29;98327.00;;;13.50
20289;BMP180;10303;51.960;8.372;2023-04-01T00:05:58;98319.00;;;13.50
20289;BMP180;10303;51.960;8.372;2023-04-01T00:08:25;98327.00;;;13.50
20289;BMP180;10303;51.960;8.372;2023-04-01T00:10:52;98331.00;;;13.50
20289;BMP180;10303;51.960;8.372;2023-04-01T00:13:19;98325.00;;;13.50
20289;BMP180;10303;51.960;8.372;2023-04-01T00:15:46;98324.00;;;13.50
20289;BMP180;10303;51.960;8.372;2023-04-01T00:18:12;98327.00;;;13.50
20289;BMP180;10303;51.960;8.372;2023-04-01T00:20:44;98322.00;;;13.50
20289;BMP180;10303;51.960;8.372;2023-04-01T00:23:10;98320.00;;;13.50
20289;BMP180;10303;51.960;8.372;2023-04-01T00:25:36;98316.00;;;13.50
20289;BMP180;10303;51.960;8.372;2023-04-01T00:28:02;98311.00;;;13.50
20289;BMP180;10303;51.960;8.372;2023-04-01T00:30:28;98315.00;;;13.50
20289;BMP180;10303;51.960;8.372;2023-04-01T00:32:54;98315.00;;;13.50
20289;BMP180;10303;51.960;8.372;2023-04-01T00:35:20;98304.00;;;13.50
20289;BMP180;10303;51.960;8.372;2023-04-01T00:37:46;98299.00;;;13.50
20289;BMP180;10303;51.960;8.372;2023-04-01T00:40:38;98315.00;;;13.40
20289;BMP180;10303;51.960;8.372;2023-04-01T00:43:13;98307.00;;;13.40
20289;BMP180;10303;51.960;8.372;2023-04-01T00:45:42;98307.00;;;13.50
20289;BMP180;10303;51.960;8.372;2023-04-01T00:48:17;98303.00;;;13.40
20289;BMP180;10303;51.960;8.372;2023-04-01T00:50:53;98311.00;;;13.40
20289;BMP180;10303;51.960;8.372;2023-04-01T00:53:22;98301.00;;;13.50
20289;BMP180;10303;51.960;8.372;2023-04-01T00:56:00;98299.00;;;13.50
20289;BMP180;10303;51.960;8.372;2023-04-01T00:58:31;98303.00;;;13.50
20289;BMP180;10303;51.960;8.372;2023-04-01T01:01:00;98300.00;;;13.50
20289;BMP180;10303;51.960;8.372;2023-04-01T01:03:28;98301.00;;;13.50
20289;BMP180;10303;51.960;8.372;2023-04-01T01:11:53;98296.00;;;13.50
20289;BMP180;10303;51.960;8.372;2023-04-01T01:14:51;98300.00;;;13.50
20289;BMP180;10303;51.960;8.372;2023-04-01T01:17:40;98288.00;;;13.50
20289;BMP180;10303;51.960;8.372;2023-04-01T01:31:12;98285.00;;;13.40
20289;BMP180;10303;51.960;8.372;2023-04-01T01:33:50;98291.00;;;13.40
20289;BMP180;10303;51.960;8.372;2023-04-01T01:36:20;98293.00;;;13.50
20289;BMP180;10303;51.960;8.372;2023-04-01T01:38:48;98290.00;;;13.50
20289;BMP180;10303;51.960;8.372;2023-04-01T01:41:18;98289.00;;;13.50
20289;BMP180;10303;51.960;8.372;2023-04-01T01:43:50;98286.00;;;13.40
20289;BMP180;10303;51.960;8.372;2023-04-01T01:46:38;98297.00;;;13.40
20289;BMP180;10303;51.960;8.372;2023-04-01T01:49:07;98286.00;;;13.40
20289;BMP180;10303;51.960;8.372;2023-04-01T01:51:36;98293.00;;;13.40
20289;BMP180;10303;51.960;8.372;2023-04-01T01:54:03;98299.00;;;13.40
20289;BMP180;10303;51.960;8.372;2023-04-01T01:56:32;98300.00;;;13.40
20289;BMP180;10303;51.960;8.372;2023-04-01T01:59:07;98293.00;;;13.40
20289;BMP180;10303;51.960;8.372;2023-04-01T02:01:41;98279.00;;;13.40
20289;BMP180;10303;51.960;8.372;2023-04-01T02:04:13;98279.00;;;13.40
20289;BMP180;10303;51.960;8.372;2023-04-01T02:06:52;98274.00;;;13.30
20289;BMP180;10303;51.960;8.372;2023-04-01T02:09:19;98279.00;;;13.30
20289;BMP180;10303;51.960;8.372;2023-04-01T02:12:08;98284.00;;;13.30
20289;BMP180;10303;51.960;8.372;2023-04-01T02:14:59;98286.00;;;13.30
20289;BMP180;10303;51.960;8.372;2023-04-01T02:17:31;98289.00;;;13.30
20289;BMP180;10303;51.960;8.372;2023-04-01T02:20:03;98294.00;;;13.20
20289;BMP180;10303;51.960;8.372;2023-04-01T02:22:36;98280.00;;;13.20
20289;BMP180;10303;51.960;8.372;2023-04-01T02:25:09;98272.00;;;13.20
20289;BMP180;10303;51.960;8.372;2023-04-01T02:27:35;98293.00;;;13.20
20289;BMP180;10303;51.960;8.372;2023-04-01T02:30:02;98275.00;;;13.20
20289;BMP180;10303;51.960;8.372;2023-04-01T02:32:33;98280.00;;;13.20
20289;BMP180;10303;51.960;8.372;2023-04-01T02:34:59;98288.00;;;13.20
20289;BMP180;10303;51.960;8.372;2023-04-01T02:37:28;98289.00;;;13.20
20289;BMP180;10303;51.960;8.372;2023-04-01T02:40:00;98291.00;;;13.20
20289;BMP180;10303;51.960;8.372;2023-04-01T02:42:26;98283.00;;;13.20
20289;BMP180;10303;51.960;8.372;2023-04-01T02:44:52;98280.00;;;13.20
20289;BMP180;10303;51.960;8.372;2023-04-01T02:47:18;98286.00;;;13.20
20289;BMP180;10303;51.960;8.372;2023-04-01T02:49:45;98288.00;;;13.20
20289;BMP180;10303;51.960;8.372;2023-04-01T02:52:10;98290.00;;;13.20
20289;BMP180;10303;51.960;8.372;2023-04-01T02:54:36;98281.00;;;13.20
20289;BMP180;10303;51.960;8.372;2023-04-01T02:57:02;98286.00;;;13.20
20289;BMP180;10303;51.960;8.372;2023-04-01T02:59:28;98286.00;;;13.20
20289;BMP180;10303;51.960;8.372;2023-04-01T03:01:54;98279.00;;;13.20
20289;BMP180;10303;51.960;8.372;2023-04-01T03:04:20;98273.00;;;13.20
20289;BMP180;10303;51.960;8.372;2023-04-01T03:06:46;98293.00;;;13.20
20289;BMP180;10303;51.960;8.372;2023-04-01T03:09:12;98278.00;;;13.20
20289;BMP180;10303;51.960;8.372;2023-04-01T03:11:40;98295.00;;;13.20
20289;BMP180;10303;51.960;8.372;2023-04-01T03:14:06;98300.00;;;13.20
20289;BMP180;10303;51.960;8.372;2023-04-01T03:16:32;98273.00;;;13.20
20289;BMP180;10303;51.960;8.372;2023-04-01T03:18:59;98274.00;;;13.20
20289;BMP180;10303;51.960;8.372;2023-04-01T03:21:27;98295.00;;;13.20
20289;BMP180;10303;51.960;8.372;2023-04-01T03:23:53;98287.00;;;13.20
20289;BMP180;10303;51.960;8.372;2023-04-01T03:26:20;98290.00;;;13.20
20289;BMP180;10303;51.960;8.372;2023-04-01T03:28:47;98288.00;;;13.20
20289;BMP180;10303;51.960;8.372;2023-04-01T03:31:13;98299.00;;;13.20
20289;BMP180;10303;51.960;8.372;2023-04-01T03:33:47;98286.00;;;13.20
20289;BMP180;10303;51.960;8.372;2023-04-01T03:36:13;98285.00;;;13.20
20289;BMP180;10303;51.960;8.372;2023-04-01T03:38:40;98294.00;;;13.20
20289;BMP180;10303;51.960;8.372;2023-04-01T03:41:07;98290.00;;;13.20
20289;BMP180;10303;51.960;8.372;2023-04-01T03:43:36;98289.00;;;13.20
20289;BMP180;10303;51.960;8.372;2023-04-01T03:46:04;98295.00;;;13.20
20289;BMP180;10303;51.960;8.372;2023-04-01T03:48:30;98293.00;;;13.20
20289;BMP180;10303;51.960;8.372;2023-04-01T03:50:56;98292.00;;;13.20
20289;BMP180;10303;51.960;8.372;2023-04-01T03:53:22;98285.00;;;13.20
20289;BMP180;10303;51.960;8.372;2023-04-01T03:55:49;98290.00;;;13.20
20289;BMP180;10303;51.960;8.372;2023-04-01T03:58:17;98286.00;;;13.20
20289;BMP180;10303;51.960;8.372;2023-04-01T04:00:43;98281.00;;;13.20
20289;BMP180;10303;51.960;8.372;2023-04-01T04:03:10;98278.00;;;13.20
20289;BMP180;10303;51.960;8.372;2023-04-01T04:05:36;98291.00;;;13.10
20289;BMP180;10303;51.960;8.372;2023-04-01T04:08:02;98291.00;;;13.10
20289;BMP180;10303;51.960;8.372;2023-04-01T04:10:28;98294.00;;;13.10
20289;BMP180;10303;51.960;8.372;2023-04-01T04:12:55;98293.00;;;13.10
20289;BMP180;10303;51.960;8.372;2023-04-01T04:15:23;98297.00;;;13.10
20289;BMP180;10303;51.960;8.372;2023-04-01T04:17:49;98293.00;;;13.10
20289;BMP180;10303;51.960;8.372;2023-04-01T04:20:15;98289.00;;;13.10
20289;BMP180;10303;51.960;8.372;2023-04-01T04:22:41;98298.00;;;13.10
20289;BMP180;10303;51.960;8.372;2023-04-01T04:25:08;98300.00;;;13.10
20289;BMP180;10303;51.960;8.372;2023-04-01T04:27:36;98300.00;;;13.10
20289;BMP180;10303;51.960;8.372;2023-04-01T04:30:08;98300.00;;;13.10
20289;BMP180;10303;51.960;8.372;2023-04-01T04:32:35;98295.00;;;13.10
20289;BMP180;10303;51.960;8.372;2023-04-01T04:35:02;98307.00;;;13.10
20289;BMP180;10303;51.960;8.372;2023-04-01T04:37:29;98311.00;;;13.10
20289;BMP180;10303;51.960;8.372;2023-04-01T04:39:55;98300.00;;;13.10
20289;BMP180;10303;51.960;8.372;2023-04-01T04:42:21;98306.00;;;13.10
20289;BMP180;10303;51.960;8.372;2023-04-01T04:44:47;98314.00;;;13.10
20289;BMP180;10303;51.960;8.372;2023-04-01T04:47:17;98310.00;;;13.10
20289;BMP180;10303;51.960;8.372;2023-04-01T04:49:42;98307.00;;;13.10
20289;BMP180;10303;51.960;8.372;2023-04-01T04:52:09;98321.00;;;13.00
20289;BMP180;10303;51.960;8.372;2023-04-01T04:54:35;98309.00;;;13.00
20289;BMP180;10303;51.960;8.372;2023-04-01T04:57:03;98316.00;;;13.10
20289;BMP180;10303;51.960;8.372;2023-04-01T04:59:33;98319.00;;;13.00
20289;BMP180;10303;51.960;8.372;2023-04-01T05:02:07;98315.00;;;13.00
20289;BMP180;10303;51.960;8.372;2023-04-01T05:04:36;98323.00;;;13.00
20289;BMP180;10303;51.960;8.372;2023-04-01T05:07:04;98330.00;;;13.00
20289;BMP180;10303;51.960;8.372;2023-04-01T05:09:31;98324.00;;;13.00
20289;BMP180;10303;51.960;8.372;2023-04-01T05:11:58;98332.00;;;13.00
20289;BMP180;10303;51.960;8.372;2023-04-01T05:14:25;98328.00;;;13.00
20289;BMP180;10303;51.960;8.372;2023-04-01T05:16:58;98332.00;;;13.00
20289;BMP180;10303;51.960;8.372;2023-04-01T05:19:24;98333.00;;;13.00
20289;BMP180;10303;51.960;8.372;2023-04-01T05:21:50;98333.00;;;13.00
20289;BMP180;10303;51.960;8.372;2023-04-01T05:24:16;98328.00;;;13.00
20289;BMP180;10303;51.960;8.372;2023-04-01T05:26:42;98335.00;;;13.00
20289;BMP180;10303;51.960;8.372;2023-04-01T05:29:08;98328.00;;;13.00
20289;BMP180;10303;51.960;8.372;2023-04-01T05:31:34;98333.00;;;13.00
20289;BMP180;10303;51.960;8.372;2023-04-01T05:34:01;98326.00;;;13.00
20289;BMP180;10303;51.960;8.372;2023-04-01T05:36:27;98341.00;;;13.00
20289;BMP180;10303;51.960;8.372;2023-04-01T05:38:57;98333.00;;;12.90
20289;BMP180;10303;51.960;8.372;2023-04-01T05:41:25;98338.00;;;13.00
20289;BMP180;10303;51.960;8.372;2023-04-01T05:43:51;98339.00;;;13.00
20289;BMP180;10303;51.960;8.372;2023-04-01T05:46:41;98340.00;;;13.00
20289;BMP180;10303;51.960;8.372;2023-04-01T05:49:17;98346.00;;;13.00
20289;BMP180;10303;51.960;8.372;2023-04-01T05:51:43;98339.00;;;13.00
20289;BMP180;10303;51.960;8.372;2023-04-01T05:54:09;98344.00;;;13.00
20289;BMP180;10303;51.960;8.372;2023-04-01T05:56:36;98341.00;;;13.00
20289;BMP180;10303;51.960;8.372;2023-04-01T05:59:03;98340.00;;;13.00
20289;BMP180;10303;51.960;8.372;2023-04-01T06:01:29;98337.00;;;13.10
20289;BMP180;10303;51.960;8.372;2023-04-01T06:03:56;98346.00;;;13.10
20289;BMP180;10303;51.960;8.372;2023-04-01T06:06:29;98352.00;;;13.10
20289;BMP180;10303;51.960;8.372;2023-04-01T06:09:27;98351.00;;;13.10
20289;BMP180;10303;51.960;8.372;2023-04-01T06:17:40;98363.00;;;13.10
20289;BMP180;10303;51.960;8.372;2023-04-01T06:23:49;98372.00;;;13.10
20289;BMP180;10303;51.960;8.372;2023-04-01T06:32:09;98381.00;;;13.10
20289;BMP180;10303;51.960;8.372;2023-04-01T06:35:08;98390.00;;;13.00
20289;BMP180;10303;51.960;8.372;2023-04-01T06:50:53;98388.00;;;13.00
20289;BMP180;10303;51.960;8.372;2023-04-01T06:53:56;98390.00;;;13.00
20289;BMP180;10303;51.960;8.372;2023-04-01T06:57:34;98383.00;;;13.00
20289;BMP180;10303;51.960;8.372;2023-04-01T07:00:12;98391.00;;;13.00
20289;BMP180;10303;51.960;8.372;2023-04-01T07:02:47;98392.00;;;13.00
20289;BMP180;10303;51.960;8.372;2023-04-01T07:05:20;98400.00;;;13.00
20289;BMP180;10303;51.960;8.372;2023-04-01T07:07:52;98391.00;;;13.00
20289;BMP180;10303;51.960;8.372;2023-04-01T07:10:35;98401.00;;;13.00
20289;BMP180;10303;51.960;8.372;2023-04-01T07:13:36;98404.00;;;13.00
20289;BMP180;10303;51.960;8.372;2023-04-01T07:16:47;98397.00;;;13.00
20289;BMP180;10303;51.960;8.372;2023-04-01T07:19:39;98399.00;;;13.00
20289;BMP180;10303;51.960;8.372;2023-04-01T07:22:40;98401.00;;;13.00
20289;BMP180;10303;51.960;8.372;2023-04-01T07:25:34;98410.00;;;13.10
20289;BMP180;10303;51.960;8.372;2023-04-01T07:28:31;98416.00;;;13.10
20289;BMP180;10303;51.960;8.372;2023-04-01T07:40:55;98419.00;;;13.10
20289;BMP180;10303;51.960;8.372;2023-04-01T07:43:55;98414.00;;;13.10
20289;BMP180;10303;51.960;8.372;2023-04-01T07:49:34;98440.00;;;13.20
20289;BMP180;10303;51.960;8.372;2023-04-01T07:55:56;98444.00;;;13.30
20289;BMP180;10303;51.960;8.372;2023-04-01T08:01:44;98446.00;;;13.40
20289;BMP180;10303;51.960;8.372;2023-04-01T08:04:57;98445.00;;;13.50
20289;BMP180;10303;51.960;8.372;2023-04-01T08:10:55;98447.00;;;13.60
20289;BMP180;10303;51.960;8.372;2023-04-01T08:22:39;98473.00;;;13.80
20289;BMP180;10303;51.960;8.372;2023-04-01T08:25:24;98476.00;;;13.80
20289;BMP180;10303;51.960;8.372;2023-04-01T08:30:51;98480.00;;;13.90
20289;BMP180;10303;51.960;8.372;2023-04-01T08:33:30;98477.00;;;14.00
20289;BMP180;10303;51.960;8.372;2023-04-01T08:36:26;98477.00;;;14.10
20289;BMP180;10303;51.960;8.372;2023-04-01T08:39:19;98472.00;;;14.10
20289;BMP180;10303;51.960;8.372;2023-04-01T08:54:03;98482.00;;;14.50
20289;BMP180;10303;51.960;8.372;2023-04-01T08:59:43;98486.00;;;14.60
20289;BMP180;10303;51.960;8.372;2023-04-01T09:09:14;98501.00;;;14.70
20289;BMP180;10303;51.960;8.372;2023-04-01T09:14:55;98502.00;;;14.80
20289;BMP180;10303;51.960;8.372;2023-04-01T09:20:52;98506.00;;;14.90
20289;BMP180;10303;51.960;8.372;2023-04-01T09:29:34;98505.00;;;15.10
20289;BMP180;10303;51.960;8.372;2023-04-01T09:35:45;98518.00;;;15.20
20289;BMP180;10303;51.960;8.372;2023-04-01T09:41:25;98516.00;;;15.30
20289;BMP180;10303;51.960;8.372;2023-04-01T09:44:25;98523.00;;;15.30
20289;BMP180;10303;51.960;8.372;2023-04-01T09:47:37;98527.00;;;15.40
20289;BMP180;10303;51.960;8.372;2023-04-01T09:50:42;98531.00;;;15.30
20289;BMP180;10303;51.960;8.372;2023-04-01T10:06:40;98538.00;;;15.50
20289;BMP180;10303;51.960;8.372;2023-04-01T10:16:26;98550.00;;;15.50
20289;BMP180;10303;51.960;8.372;2023-04-01T10:28:46;98560.00;;;15.40
20289;BMP180;10303;51.960;8.372;2023-04-01T10:40:44;98566.00;;;15.30
20289;BMP180;10303;51.960;8.372;2023-04-01T10:50:13;98575.00;;;15.40
20289;BMP180;10303;51.960;8.372;2023-04-01T10:56:36;98571.00;;;15.50
20289;BMP180;10303;51.960;8.372;2023-04-01T11:34:47;98604.00;;;15.90
20289;BMP180;10303;51.960;8.372;2023-04-01T11:44:26;98607.00;;;16.00
20289;BMP180;10303;51.960;8.372;2023-04-01T11:47:57;98615.00;;;16.00
20289;BMP180;10303;51.960;8.372;2023-04-01T12:00:04;98625.00;;;16.10
20289;BMP180;10303;51.960;8.372;2023-04-01T12:08:57;98634.00;;;16.10
20289;BMP180;10303;51.960;8.372;2023-04-01T12:14:45;98634.00;;;16.00
20289;BMP180;10303;51.960;8.372;2023-04-01T12:17:39;98639.00;;;15.90
20289;BMP180;10303;51.960;8.372;2023-04-01T12:23:08;98646.00;;;15.90
20289;BMP180;10303;51.960;8.372;2023-04-01T12:34:20;98656.00;;;15.90
20289;BMP180;10303;51.960;8.372;2023-04-01T12:37:12;98660.00;;;15.90
20289;BMP180;10303;51.960;8.372;2023-04-01T12:40:24;98665.00;;;15.90
20289;BMP180;10303;51.960;8.372;2023-04-01T12:43:18;98659.00;;;15.90
20289;BMP180;10303;51.960;8.372;2023-04-01T12:48:54;98665.00;;;15.90
20289;BMP180;10303;51.960;8.372;2023-04-01T12:51:47;98670.00;;;16.00
20289;BMP180;10303;51.960;8.372;2023-04-01T12:54:40;98664.00;;;16.00
20289;BMP180;10303;51.960;8.372;2023-04-01T12:57:22;98676.00;;;16.00
20289;BMP180;10303;51.960;8.372;2023-04-01T13:00:18;98669.00;;;16.00
20289;BMP180;10303;51.960;8.372;2023-04-01T13:12:01;98694.00;;;16.10
20289;BMP180;10303;51.960;8.372;2023-04-01T13:15:11;98688.00;;;16.10
20289;BMP180;10303;51.960;8.372;2023-04-01T13:18:03;98698.00;;;16.10
20289;BMP180;10303;51.960;8.372;2023-04-01T13:24:28;98703.00;;;16.10
20289;BMP180;10303;51.960;8.372;2023-04-01T13:30:00;98703.00;;;16.10
20289;BMP180;10303;51.960;8.372;2023-04-01T13:39:33;98714.00;;;16.20
20289;BMP180;10303;51.960;8.372;2023-04-01T13:41:50;98720.00;;;16.30
20289;BMP180;10303;51.960;8.372;2023-04-01T13:47:34;98714.00;;;16.30
20289;BMP180;10303;51.960;8.372;2023-04-01T14:00:11;98715.00;;;16.40
20289;BMP180;10303;51.960;8.372;2023-04-01T14:02:50;98721.00;;;16.40
20289;BMP180;10303;51.960;8.372;2023-04-01T14:06:06;98727.00;;;16.50
20289;BMP180;10303;51.960;8.372;2023-04-01T14:14:34;98733.00;;;16.50
20289;BMP180;10303;51.960;8.372;2023-04-01T14:28:56;98753.00;;;16.60
20289;BMP180;10303;51.960;8.372;2023-04-01T14:32:08;98765.00;;;16.60
20289;BMP180;10303;51.960;8.372;2023-04-01T14:35:09;98766.00;;;16.70
20289;BMP180;10303;51.960;8.372;2023-04-01T14:41:10;98775.00;;;16.60
20289;BMP180;10303;51.960;8.372;2023-04-01T14:44:01;98780.00;;;16.70
20289;BMP180;10303;51.960;8.372;2023-04-01T14:49:51;98783.00;;;16.60
20289;BMP180;10303;51.960;8.372;2023-04-01T14:52:31;98785.00;;;16.70
20289;BMP180;10303;51.960;8.372;2023-04-01T14:55:01;98781.00;;;16.80
20289;BMP180;10303;51.960;8.372;2023-04-01T14:57:31;98780.00;;;16.80
20289;BMP180;10303;51.960;8.372;2023-04-01T15:03:29;98797.00;;;16.70
20289;BMP180;10303;51.960;8.372;2023-04-01T15:09:29;98804.00;;;16.70
20289;BMP180;10303;51.960;8.372;2023-04-01T15:12:26;98804.00;;;16.70
20289;BMP180;10303;51.960;8.372;2023-04-01T15:15:10;98810.00;;;16.70
20289;BMP180;10303;51.960;8.372;2023-04-01T15:18:18;98816.00;;;16.70
20289;BMP180;10303;51.960;8.372;2023-04-01T15:21:18;98822.00;;;16.70
20289;BMP180;10303;51.960;8.372;2023-04-01T15:27:02;98829.00;;;16.70
20289;BMP180;10303;51.960;8.372;2023-04-01T15:33:51;98832.00;;;16.70
20289;BMP180;10303;51.960;8.372;2023-04-01T15:38:50;98844.00;;;16.70
20289;BMP180;10303;51.960;8.372;2023-04-01T15:41:48;98843.00;;;16.70
20289;BMP180;10303;51.960;8.372;2023-04-01T15:47:28;98856.00;;;16.70
20289;BMP180;10303;51.960;8.372;2023-04-01T15:53:34;98864.00;;;16.60
20289;BMP180;10303;51.960;8.372;2023-04-01T15:56:26;98874.00;;;16.60
20289;BMP180;10303;51.960;8.372;2023-04-01T16:02:23;98873.00;;;16.60
20289;BMP180;10303;51.960;8.372;2023-04-01T16:05:26;98885.00;;;16.60
20289;BMP180;10303;51.960;8.372;2023-04-01T16:23:30;98904.00;;;16.60
20289;BMP180;10303;51.960;8.372;2023-04-01T16:34:58;98927.00;;;16.50
20289;BMP180;10303;51.960;8.372;2023-04-01T16:37:49;98924.00;;;16.50
20289;BMP180;10303;51.960;8.372;2023-04-01T16:46:16;98936.00;;;16.30
20289;BMP180;10303;51.960;8.372;2023-04-01T16:51:48;98959.00;;;16.20
20289;BMP180;10303;51.960;8.372;2023-04-01T16:59:45;98975.00;;;16.00
20289;BMP180;10303;51.960;8.372;2023-04-01T17:02:16;98974.00;;;15.90
20289;BMP180;10303;51.960;8.372;2023-04-01T17:05:09;98992.00;;;15.90
20289;BMP180;10303;51.960;8.372;2023-04-01T17:10:53;98994.00;;;15.70
20289;BMP180;10303;51.960;8.372;2023-04-01T17:22:42;99018.00;;;15.50
20289;BMP180;10303;51.960;8.372;2023-04-01T17:28:51;99032.00;;;15.40
20289;BMP180;10303;51.960;8.372;2023-04-01T17:31:31;99047.00;;;15.40
20289;BMP180;10303;51.960;8.372;2023-04-01T17:37:45;99050.00;;;15.30
20289;BMP180;10303;51.960;8.372;2023-04-01T17:40:48;99064.00;;;15.20
20289;BMP180;10303;51.960;8.372;2023-04-01T17:46:31;99076.00;;;15.20
20289;BMP180;10303;51.960;8.372;2023-04-01T17:49:37;99075.00;;;15.10
20289;BMP180;10303;51.960;8.372;2023-04-01T17:55:45;99099.00;;;15.00
20289;BMP180;10303;51.960;8.372;2023-04-01T17:59:16;99106.00;;;14.90
20289;BMP180;10303;51.960;8.372;2023-04-01T18:13:50;99134.00;;;14.40
20289;BMP180;10303;51.960;8.372;2023-04-01T18:25:25;99167.00;;;14.10
20289;BMP180;10303;51.960;8.372;2023-04-01T18:28:50;99184.00;;;13.90
20289;BMP180;10303;51.960;8.372;2023-04-01T18:31:24;99190.00;;;13.90
20289;BMP180;10303;51.960;8.372;2023-04-01T18:37:15;99202.00;;;13.70
20289;BMP180;10303;51.960;8.372;2023-04-01T18:39:51;99205.00;;;13.70
20289;BMP180;10303;51.960;8.372;2023-04-01T18:42:46;99212.00;;;13.70
20289;BMP180;10303;51.960;8.372;2023-04-01T18:45:40;99229.00;;;13.60
20289;BMP180;10303;51.960;8.372;2023-04-01T18:48:50;99227.00;;;13.50
20289;BMP180;10303;51.960;8.372;2023-04-01T18:51:54;99242.00;;;13.50
20289;BMP180;10303;51.960;8.372;2023-04-01T18:57:52;99254.00;;;13.40
20289;BMP180;10303;51.960;8.372;2023-04-01T19:00:32;99250.00;;;13.40
20289;BMP180;10303;51.960;8.372;2023-04-01T19:03:08;99270.00;;;13.40
20289;BMP180;10303;51.960;8.372;2023-04-01T19:05:42;99256.00;;;13.30
20289;BMP180;10303;51.960;8.372;2023-04-01T19:08:29;99282.00;;;13.30
20289;BMP180;10303;51.960;8.372;2023-04-01T19:14:05;99287.00;;;13.20
20289;BMP180;10303;51.960;8.372;2023-04-01T19:16:52;99290.00;;;13.10
20289;BMP180;10303;51.960;8.372;2023-04-01T19:25:38;99319.00;;;13.00
20289;BMP180;10303;51.960;8.372;2023-04-01T19:30:58;99332.00;;;12.90
20289;BMP180;10303;51.960;8.372;2023-04-01T19:36:50;99346.00;;;12.80
20289;BMP180;10303;51.960;8.372;2023-04-01T19:51:27;99374.00;;;12.50
20289;BMP180;10303;51.960;8.372;2023-04-01T19:54:16;99381.00;;;12.50
20289;BMP180;10303;51.960;8.372;2023-04-01T19:56:56;99380.00;;;12.40
20289;BMP180;10303;51.960;8.372;2023-04-01T19:59:34;99380.00;;;12.40
20289;BMP180;10303;51.960;8.372;2023-04-01T20:04:51;99397.00;;;12.30
20289;BMP180;10303;51.960;8.372;2023-04-01T20:16:04;99430.00;;;12.10
20289;BMP180;10303;51.960;8.372;2023-04-01T20:18:48;99428.00;;;12.00
20289;BMP180;10303;51.960;8.372;2023-04-01T20:24:14;99437.00;;;11.90
20289;BMP180;10303;51.960;8.372;2023-04-01T20:27:09;99454.00;;;11.80
20289;BMP180;10303;51.960;8.372;2023-04-01T20:39:40;99476.00;;;11.60
20289;BMP180;10303;51.960;8.372;2023-04-01T20:51:04;99496.00;;;11.40
20289;BMP180;10303;51.960;8.372;2023-04-01T21:12:22;99542.00;;;11.20
20289;BMP180;10303;51.960;8.372;2023-04-01T21:15:07;99547.00;;;11.20
20289;BMP180;10303;51.960;8.372;2023-04-01T21:21:41;99551.00;;;11.10
20289;BMP180;10303;51.960;8.372;2023-04-01T21:30:12;99576.00;;;11.00
20289;BMP180;10303;51.960;8.372;2023-04-01T21:35:43;99587.00;;;11.00
20289;BMP180;10303;51.960;8.372;2023-04-01T21:47:19;99619.00;;;10.80
20289;BMP180;10303;51.960;8.372;2023-04-01T21:53:19;99631.00;;;10.80
20289;BMP180;10303;51.960;8.372;2023-04-01T22:04:46;99674.00;;;10.60
20289;BMP180;10303;51.960;8.372;2023-04-01T22:13:07;99680.00;;;10.50
20289;BMP180;10303;51.960;8.372;2023-04-01T22:16:17;99681.00;;;10.40
20289;BMP180;10303;51.960;8.372;2023-04-01T22:19:14;99693.00;;;10.40
20289;BMP180;10303;51.960;8.372;2023-04-01T22:22:08;99694.00;;;10.40
20289;BMP180;10303;51.960;8.372;2023-04-01T22:25:10;99684.00;;;10.40
20289;BMP180;10303;51.960;8.372;2023-04-01T22:27:52;99701.00;;;10.30
20289;BMP180;10303;51.960;8.372;2023-04-01T22:30:50;99713.00;;;10.30
20289;BMP180;10303;51.960;8.372;2023-04-01T22:48:45;99740.00;;;10.00
20289;BMP180;10303;51.960;8.372;2023-04-01T22:54:22;99755.00;;;10.00
20289;BMP180;10303;51.960;8.372;2023-04-01T22:56:59;99754.00;;;9.90
20289;BMP180;10303;51.960;8.372;2023-04-01T22:59:54;99759.00;;;9.80
20289;BMP180;10303;51.960;8.372;2023-04-01T23:02:32;99763.00;;;9.80
20289;BMP180;10303;51.960;8.372;2023-04-01T23:05:03;99756.00;;;9.80
20289;BMP180;10303;51.960;8.372;2023-04-01T23:10:14;99768.00;;;9.70
20289;BMP180;10303;51.960;8.372;2023-04-01T23:12:41;99780.00;;;9.70
20289;BMP180;10303;51.960;8.372;2023-04-01T23:15:13;99790.00;;;9.70
20289;BMP180;10303;51.960;8.372;2023-04-01T23:20:39;99798.00;;;9.70
20289;BMP180;10303;51.960;8.372;2023-04-01T23:23:24;99801.00;;;9.70
20289;BMP180;10303;51.960;8.372;2023-04-01T23:26:23;99812.00;;;9.60
20289;BMP180;10303;51.960;8.372;2023-04-01T23:28:56;99823.00;;;9.60
20289;BMP180;10303;51.960;8.372;2023-04-01T23:31:43;99826.00;;;9.60
20289;BMP180;10303;51.960;8.372;2023-04-01T23:36:52;99834.00;;;9.60
20289;BMP180;10303;51.960;8.372;2023-04-01T23:39:41;99828.00;;;9.60
20289;BMP180;10303;51.960;8.372;2023-04-01T23:42:26;99836.00;;;9.60
20289;BMP180;10303;51.960;8.372;2023-04-01T23:44:57;99845.00;;;9.60
20289;BMP180;10303;51.960;8.372;2023-04-01T23:47:31;99849.00;;;9.60
20289;BMP180;10303;51.960;8.372;2023-04-01T23:50:03;99864.00;;;9.60
20289;BMP180;10303;51.960;8.372;2023-04-01T23:52:42;99868.00;;;9.50
20289;BMP180;10303;51.960;8.372;2023-04-01T23:55:18;99865.00;;;9.50
